sensor_id;sensor_type;location;lat;lon;timestamp;temperature;humidity
17152;DHT22;8691;50.828;4.700;2023-02-18T00:02:10;10.80;99.90
17152;DHT22;8691;50.828;4.700;2023-02-18T00:04:38;10.80;99.90
17152;DHT22;8691;50.828;4.700;2023-02-18T00:07:04;10.70;99.90
17152;DHT22;8691;50.828;4.700;2023-02-18T00:09:31;10.80;99.90
17152;DHT22;8691;50.828;4.700;2023-02-18T00:11:58;10.80;99.90
17152;DHT22;8691;50.828;4.700;2023-02-18T00:14:24;10.80;99.90
17152;DHT22;8691;50.828;4.700;2023-02-18T00:16:51;10.80;99.90
17152;DHT22;8691;50.828;4.700;2023-02-18T00:19:18;10.80;99.90
17152;DHT22;8691;50.828;4.700;2023-02-18T00:21:45;10.80;99.90
17152;DHT22;8691;50.828;4.700;2023-02-18T00:24:12;10.80;99.90
17152;DHT22;8691;50.828;4.700;2023-02-18T00:26:38;10.80;99.90
17152;DHT22;8691;50.828;4.700;2023-02-18T00:29:04;10.80;99.90
17152;DHT22;8691;50.828;4.700;2023-02-18T00:31:35;10.80;99.90
17152;DHT22;8691;50.828;4.700;2023-02-18T00:34:01;10.90;99.90
17152;DHT22;8691;50.828;4.700;2023-02-18T00:36:27;10.90;99.90
17152;DHT22;8691;50.828;4.700;2023-02-18T00:38:55;10.80;99.90
17152;DHT22;8691;50.828;4.700;2023-02-18T00:41:21;10.80;99.90
17152;DHT22;8691;50.828;4.700;2023-02-18T00:43:47;10.90;99.90
17152;DHT22;8691;50.828;4.700;2023-02-18T00:46:14;10.90;99.90
17152;DHT22;8691;50.828;4.700;2023-02-18T00:48:41;10.90;99.90
17152;DHT22;8691;50.828;4.700;2023-02-18T00:51:07;10.90;99.90
17152;DHT22;8691;50.828;4.700;2023-02-18T00:53:34;10.90;99.90
17152;DHT22;8691;50.828;4.700;2023-02-18T00:56:01;10.90;99.90
17152;DHT22;8691;50.828;4.700;2023-02-18T00:58:28;10.90;99.90
17152;DHT22;8691;50.828;4.700;2023-02-18T01:00:55;10.80;99.90
17152;DHT22;8691;50.828;4.700;2023-02-18T01:03:21;10.80;99.90
17152;DHT22;8691;50.828;4.700;2023-02-18T01:05:48;10.80;99.90
17152;DHT22;8691;50.828;4.700;2023-02-18T01:08:16;10.80;99.90
17152;DHT22;8691;50.828;4.700;2023-02-18T01:10:43;10.80;99.90
17152;DHT22;8691;50.828;4.700;2023-02-18T01:13:09;10.90;99.90
17152;DHT22;8691;50.828;4.700;2023-02-18T01:15:36;10.90;99.90
17152;DHT22;8691;50.828;4.700;2023-02-18T01:18:02;10.90;99.90
17152;DHT22;8691;50.828;4.700;2023-02-18T01:20:29;10.90;99.90
17152;DHT22;8691;50.828;4.700;2023-02-18T01:22:55;10.80;99.90
17152;DHT22;8691;50.828;4.700;2023-02-18T01:25:22;10.80;99.90
17152;DHT22;8691;50.828;4.700;2023-02-18T01:27:49;10.80;99.90
17152;DHT22;8691;50.828;4.700;2023-02-18T01:30:16;10.80;99.90
17152;DHT22;8691;50.828;4.700;2023-02-18T01:32:43;10.80;99.90
17152;DHT22;8691;50.828;4.700;2023-02-18T01:35:10;10.70;99.90
17152;DHT22;8691;50.828;4.700;2023-02-18T01:37:37;10.70;99.90
17152;DHT22;8691;50.828;4.700;2023-02-18T01:40:04;10.70;99.90
17152;DHT22;8691;50.828;4.700;2023-02-18T01:42:30;10.70;99.90
17152;DHT22;8691;50.828;4.700;2023-02-18T01:48:03;10.60;99.90
17152;DHT22;8691;50.828;4.700;2023-02-18T01:50:27;10.60;99.90
17152;DHT22;8691;50.828;4.700;2023-02-18T01:52:55;10.60;99.90
17152;DHT22;8691;50.828;4.700;2023-02-18T01:55:21;10.60;99.90
17152;DHT22;8691;50.828;4.700;2023-02-18T01:57:49;10.60;99.90
17152;DHT22;8691;50.828;4.700;2023-02-18T02:00:16;10.50;99.90
17152;DHT22;8691;50.828;4.700;2023-02-18T02:02:45;10.50;99.90
17152;DHT22;8691;50.828;4.700;2023-02-18T02:05:09;10.50;99.90
17152;DHT22;8691;50.828;4.700;2023-02-18T02:07:35;10.50;99.90
17152;DHT22;8691;50.828;4.700;2023-02-18T02:10:02;10.50;99.90
17152;DHT22;8691;50.828;4.700;2023-02-18T02:15:44;10.50;99.90
17152;DHT22;8691;50.828;4.700;2023-02-18T02:21:06;10.50;99.90
17152;DHT22;8691;50.828;4.700;2023-02-18T02:23:33;10.50;99.90
17152;DHT22;8691;50.828;4.700;2023-02-18T02:29:04;10.50;99.90
17152;DHT22;8691;50.828;4.700;2023-02-18T02:39:52;10.50;99.90
17152;DHT22;8691;50.828;4.700;2023-02-18T02:45:10;10.40;99.90
17152;DHT22;8691;50.828;4.700;2023-02-18T02:47:46;10.40;99.90
17152;DHT22;8691;50.828;4.700;2023-02-18T02:50:27;10.40;99.90
17152;DHT22;8691;50.828;4.700;2023-02-18T02:52:53;10.40;99.90
17152;DHT22;8691;50.828;4.700;2023-02-18T02:55:18;10.40;99.90
17152;DHT22;8691;50.828;4.700;2023-02-18T02:57:47;10.40;99.90
17152;DHT22;8691;50.828;4.700;2023-02-18T03:00:15;10.40;99.90
17152;DHT22;8691;50.828;4.700;2023-02-18T03:03:04;10.40;99.90
17152;DHT22;8691;50.828;4.700;2023-02-18T03:11:13;10.40;99.90
17152;DHT22;8691;50.828;4.700;2023-02-18T03:16:28;10.40;99.90
17152;DHT22;8691;50.828;4.700;2023-02-18T03:21:54;10.40;99.90
17152;DHT22;8691;50.828;4.700;2023-02-18T03:26:24;10.40;99.90
17152;DHT22;8691;50.828;4.700;2023-02-18T03:28:51;10.40;99.90
17152;DHT22;8691;50.828;4.700;2023-02-18T03:31:18;10.30;99.90
17152;DHT22;8691;50.828;4.700;2023-02-18T03:33:45;10.30;99.90
17152;DHT22;8691;50.828;4.700;2023-02-18T03:36:11;10.30;99.90
17152;DHT22;8691;50.828;4.700;2023-02-18T03:38:39;10.30;99.90
17152;DHT22;8691;50.828;4.700;2023-02-18T03:41:04;10.30;99.90
17152;DHT22;8691;50.828;4.700;2023-02-18T03:43:30;10.30;99.90
17152;DHT22;8691;50.828;4.700;2023-02-18T03:45:57;10.30;99.90
17152;DHT22;8691;50.828;4.700;2023-02-18T03:48:25;10.30;99.90
17152;DHT22;8691;50.828;4.700;2023-02-18T03:50:51;10.30;99.90
17152;DHT22;8691;50.828;4.700;2023-02-18T03:53:17;10.30;99.90
17152;DHT22;8691;50.828;4.700;2023-02-18T03:55:44;10.30;99.90
17152;DHT22;8691;50.828;4.700;2023-02-18T03:58:11;10.30;99.90
17152;DHT22;8691;50.828;4.700;2023-02-18T04:00:37;10.30;99.90
17152;DHT22;8691;50.828;4.700;2023-02-18T04:03:04;10.30;99.90
17152;DHT22;8691;50.828;4.700;2023-02-18T04:05:31;10.30;99.90
17152;DHT22;8691;50.828;4.700;2023-02-18T04:07:58;10.30;99.90
17152;DHT22;8691;50.828;4.700;2023-02-18T04:10:25;10.30;99.90
17152;DHT22;8691;50.828;4.700;2023-02-18T04:12:51;10.30;99.90
17152;DHT22;8691;50.828;4.700;2023-02-18T04:15:19;10.40;99.90
17152;DHT22;8691;50.828;4.700;2023-02-18T04:17:45;10.30;99.90
17152;DHT22;8691;50.828;4.700;2023-02-18T04:20:13;10.30;99.90
17152;DHT22;8691;50.828;4.700;2023-02-18T04:22:39;10.30;99.90
17152;DHT22;8691;50.828;4.700;2023-02-18T04:25:07;10.30;99.90
17152;DHT22;8691;50.828;4.700;2023-02-18T04:27:33;10.30;99.90
17152;DHT22;8691;50.828;4.700;2023-02-18T04:30:00;10.20;99.90
17152;DHT22;8691;50.828;4.700;2023-02-18T04:32:26;10.20;99.90
17152;DHT22;8691;50.828;4.700;2023-02-18T04:34:53;10.20;99.90
17152;DHT22;8691;50.828;4.700;2023-02-18T04:37:20;10.20;99.90
17152;DHT22;8691;50.828;4.700;2023-02-18T04:39:46;10.20;99.90
17152;DHT22;8691;50.828;4.700;2023-02-18T04:42:13;10.10;99.90
17152;DHT22;8691;50.828;4.700;2023-02-18T04:44:41;10.20;99.90
17152;DHT22;8691;50.828;4.700;2023-02-18T04:47:08;10.20;99.90
17152;DHT22;8691;50.828;4.700;2023-02-18T04:49:34;10.10;99.90
17152;DHT22;8691;50.828;4.700;2023-02-18T04:52:01;10.10;99.90
17152;DHT22;8691;50.828;4.700;2023-02-18T04:54:27;10.20;99.90
17152;DHT22;8691;50.828;4.700;2023-02-18T04:56:54;10.20;99.90
17152;DHT22;8691;50.828;4.700;2023-02-18T04:59:20;10.10;99.90
17152;DHT22;8691;50.828;4.700;2023-02-18T05:01:47;10.10;99.90
17152;DHT22;8691;50.828;4.700;2023-02-18T05:04:14;10.10;99.90
17152;DHT22;8691;50.828;4.700;2023-02-18T05:06:42;10.10;99.90
17152;DHT22;8691;50.828;4.700;2023-02-18T05:09:08;10.10;99.90
17152;DHT22;8691;50.828;4.700;2023-02-18T05:11:35;10.10;99.90
17152;DHT22;8691;50.828;4.700;2023-02-18T05:14:01;10.10;99.90
17152;DHT22;8691;50.828;4.700;2023-02-18T05:16:28;10.10;99.90
17152;DHT22;8691;50.828;4.700;2023-02-18T05:18:55;10.10;99.90
17152;DHT22;8691;50.828;4.700;2023-02-18T05:21:22;10.00;99.90
17152;DHT22;8691;50.828;4.700;2023-02-18T05:23:49;10.00;99.90
17152;DHT22;8691;50.828;4.700;2023-02-18T05:26:15;10.00;99.90
17152;DHT22;8691;50.828;4.700;2023-02-18T05:28:42;10.00;99.90
17152;DHT22;8691;50.828;4.700;2023-02-18T05:31:09;10.00;99.90
17152;DHT22;8691;50.828;4.700;2023-02-18T05:33:36;9.90;99.90
17152;DHT22;8691;50.828;4.700;2023-02-18T05:36:03;9.90;99.90
17152;DHT22;8691;50.828;4.700;2023-02-18T05:38:29;9.90;99.90
17152;DHT22;8691;50.828;4.700;2023-02-18T05:40:56;9.90;99.90
17152;DHT22;8691;50.828;4.700;2023-02-18T05:43:22;9.90;99.90
17152;DHT22;8691;50.828;4.700;2023-02-18T05:45:49;9.90;99.90
17152;DHT22;8691;50.828;4.700;2023-02-18T05:48:16;9.90;99.90
17152;DHT22;8691;50.828;4.700;2023-02-18T05:50:42;9.90;99.90
17152;DHT22;8691;50.828;4.700;2023-02-18T05:53:09;9.90;99.90
17152;DHT22;8691;50.828;4.700;2023-02-18T05:55:36;9.90;99.90
17152;DHT22;8691;50.828;4.700;2023-02-18T05:58:02;9.90;99.90
17152;DHT22;8691;50.828;4.700;2023-02-18T06:00:29;9.80;99.90
17152;DHT22;8691;50.828;4.700;2023-02-18T06:02:55;9.80;99.90
17152;DHT22;8691;50.828;4.700;2023-02-18T06:05:22;9.70;99.90
17152;DHT22;8691;50.828;4.700;2023-02-18T06:07:49;9.70;99.90
17152;DHT22;8691;50.828;4.700;2023-02-18T06:10:16;9.70;99.90
17152;DHT22;8691;50.828;4.700;2023-02-18T06:12:46;9.70;99.90
17152;DHT22;8691;50.828;4.700;2023-02-18T06:15:13;9.70;99.90
17152;DHT22;8691;50.828;4.700;2023-02-18T06:17:40;9.70;99.90
17152;DHT22;8691;50.828;4.700;2023-02-18T06:20:07;9.70;99.90
17152;DHT22;8691;50.828;4.700;2023-02-18T06:22:34;9.70;99.90
17152;DHT22;8691;50.828;4.700;2023-02-18T06:25:01;9.80;99.90
17152;DHT22;8691;50.828;4.700;2023-02-18T06:27:28;9.70;99.90
17152;DHT22;8691;50.828;4.700;2023-02-18T06:29:55;9.70;99.90
17152;DHT22;8691;50.828;4.700;2023-02-18T06:32:22;9.70;99.90
17152;DHT22;8691;50.828;4.700;2023-02-18T06:34:49;9.70;99.90
17152;DHT22;8691;50.828;4.700;2023-02-18T06:37:15;9.70;99.90
17152;DHT22;8691;50.828;4.700;2023-02-18T06:39:42;9.70;99.90
17152;DHT22;8691;50.828;4.700;2023-02-18T06:42:09;9.80;99.90
17152;DHT22;8691;50.828;4.700;2023-02-18T06:44:36;9.80;99.90
17152;DHT22;8691;50.828;4.700;2023-02-18T06:47:03;9.90;99.90
17152;DHT22;8691;50.828;4.700;2023-02-18T06:49:30;9.80;99.90
17152;DHT22;8691;50.828;4.700;2023-02-18T06:51:57;9.90;99.90
17152;DHT22;8691;50.828;4.700;2023-02-18T06:54:24;9.90;99.90
17152;DHT22;8691;50.828;4.700;2023-02-18T06:56:50;9.90;99.90
17152;DHT22;8691;50.828;4.700;2023-02-18T06:59:17;9.80;99.90
17152;DHT22;8691;50.828;4.700;2023-02-18T07:01:45;10.00;99.90
17152;DHT22;8691;50.828;4.700;2023-02-18T07:04:11;9.90;99.90
17152;DHT22;8691;50.828;4.700;2023-02-18T07:06:39;9.90;99.90
17152;DHT22;8691;50.828;4.700;2023-02-18T07:09:05;9.90;99.90
17152;DHT22;8691;50.828;4.700;2023-02-18T07:11:32;9.90;99.90
17152;DHT22;8691;50.828;4.700;2023-02-18T07:13:59;9.90;99.90
17152;DHT22;8691;50.828;4.700;2023-02-18T07:16:25;9.90;99.90
17152;DHT22;8691;50.828;4.700;2023-02-18T07:18:52;10.00;99.90
17152;DHT22;8691;50.828;4.700;2023-02-18T07:21:19;9.90;99.90
17152;DHT22;8691;50.828;4.700;2023-02-18T07:23:46;10.00;99.90
17152;DHT22;8691;50.828;4.700;2023-02-18T07:26:13;10.00;99.90
17152;DHT22;8691;50.828;4.700;2023-02-18T07:28:40;9.90;99.90
17152;DHT22;8691;50.828;4.700;2023-02-18T07:31:07;9.90;99.90
17152;DHT22;8691;50.828;4.700;2023-02-18T07:33:34;10.00;99.90
17152;DHT22;8691;50.828;4.700;2023-02-18T07:36:00;10.00;99.90
17152;DHT22;8691;50.828;4.700;2023-02-18T07:38:27;10.00;99.90
17152;DHT22;8691;50.828;4.700;2023-02-18T07:40:55;10.00;99.90
17152;DHT22;8691;50.828;4.700;2023-02-18T07:43:21;10.20;99.90
17152;DHT22;8691;50.828;4.700;2023-02-18T07:45:48;10.20;99.90
17152;DHT22;8691;50.828;4.700;2023-02-18T07:48:15;10.10;99.90
17152;DHT22;8691;50.828;4.700;2023-02-18T07:50:42;10.10;99.90
17152;DHT22;8691;50.828;4.700;2023-02-18T07:53:09;10.10;99.90
17152;DHT22;8691;50.828;4.700;2023-02-18T07:55:35;10.20;99.90
17152;DHT22;8691;50.828;4.700;2023-02-18T07:58:20;10.20;99.90
17152;DHT22;8691;50.828;4.700;2023-02-18T08:00:43;10.20;99.90
17152;DHT22;8691;50.828;4.700;2023-02-18T08:03:10;10.30;99.90
17152;DHT22;8691;50.828;4.700;2023-02-18T08:05:37;10.30;99.90
17152;DHT22;8691;50.828;4.700;2023-02-18T08:08:04;10.40;99.90
17152;DHT22;8691;50.828;4.700;2023-02-18T08:10:31;10.40;99.90
17152;DHT22;8691;50.828;4.700;2023-02-18T08:12:58;10.50;99.90
17152;DHT22;8691;50.828;4.700;2023-02-18T08:15:25;10.50;99.90
17152;DHT22;8691;50.828;4.700;2023-02-18T08:17:52;10.50;99.90
17152;DHT22;8691;50.828;4.700;2023-02-18T08:20:19;10.50;99.90
17152;DHT22;8691;50.828;4.700;2023-02-18T08:22:46;10.60;99.90
17152;DHT22;8691;50.828;4.700;2023-02-18T08:25:13;10.60;99.90
17152;DHT22;8691;50.828;4.700;2023-02-18T08:27:39;10.70;99.90
17152;DHT22;8691;50.828;4.700;2023-02-18T08:30:06;10.60;99.90
17152;DHT22;8691;50.828;4.700;2023-02-18T08:32:33;10.90;99.90
17152;DHT22;8691;50.828;4.700;2023-02-18T08:35:00;10.80;99.90
17152;DHT22;8691;50.828;4.700;2023-02-18T08:37:27;10.90;99.90
17152;DHT22;8691;50.828;4.700;2023-02-18T08:39:56;10.90;99.90
17152;DHT22;8691;50.828;4.700;2023-02-18T08:42:21;11.10;99.90
17152;DHT22;8691;50.828;4.700;2023-02-18T08:44:48;11.10;99.90
17152;DHT22;8691;50.828;4.700;2023-02-18T08:47:15;11.20;99.90
17152;DHT22;8691;50.828;4.700;2023-02-18T08:49:42;11.20;99.90
17152;DHT22;8691;50.828;4.700;2023-02-18T08:52:10;11.40;99.90
17152;DHT22;8691;50.828;4.700;2023-02-18T08:54:37;11.30;99.90
17152;DHT22;8691;50.828;4.700;2023-02-18T08:57:04;11.20;99.90
17152;DHT22;8691;50.828;4.700;2023-02-18T08:59:31;11.20;99.90
17152;DHT22;8691;50.828;4.700;2023-02-18T09:01:58;11.10;99.90
17152;DHT22;8691;50.828;4.700;2023-02-18T09:04:25;11.10;99.90
17152;DHT22;8691;50.828;4.700;2023-02-18T09:06:52;11.20;99.90
17152;DHT22;8691;50.828;4.700;2023-02-18T09:09:19;11.20;99.90
17152;DHT22;8691;50.828;4.700;2023-02-18T09:11:45;11.20;99.90
17152;DHT22;8691;50.828;4.700;2023-02-18T09:14:12;11.20;99.90
17152;DHT22;8691;50.828;4.700;2023-02-18T09:16:39;11.10;99.90
17152;DHT22;8691;50.828;4.700;2023-02-18T09:19:05;11.20;99.90
17152;DHT22;8691;50.828;4.700;2023-02-18T09:21:33;11.50;99.90
17152;DHT22;8691;50.828;4.700;2023-02-18T09:24:00;11.50;99.90
17152;DHT22;8691;50.828;4.700;2023-02-18T09:26:26;11.30;99.90
17152;DHT22;8691;50.828;4.700;2023-02-18T09:28:54;11.30;99.90
17152;DHT22;8691;50.828;4.700;2023-02-18T09:31:22;11.40;99.90
17152;DHT22;8691;50.828;4.700;2023-02-18T09:33:49;11.40;99.90
17152;DHT22;8691;50.828;4.700;2023-02-18T09:36:14;11.40;99.90
17152;DHT22;8691;50.828;4.700;2023-02-18T09:38:41;11.40;99.90
17152;DHT22;8691;50.828;4.700;2023-02-18T09:41:09;11.40;99.90
17152;DHT22;8691;50.828;4.700;2023-02-18T09:43:35;11.50;99.90
17152;DHT22;8691;50.828;4.700;2023-02-18T09:46:01;11.40;99.90
17152;DHT22;8691;50.828;4.700;2023-02-18T09:48:30;11.40;99.90
17152;DHT22;8691;50.828;4.700;2023-02-18T09:50:54;11.50;99.90
17152;DHT22;8691;50.828;4.700;2023-02-18T09:53:21;11.40;99.90
17152;DHT22;8691;50.828;4.700;2023-02-18T09:55:48;11.40;99.90
17152;DHT22;8691;50.828;4.700;2023-02-18T09:58:20;11.40;99.90
17152;DHT22;8691;50.828;4.700;2023-02-18T10:00:50;11.40;99.90
17152;DHT22;8691;50.828;4.700;2023-02-18T10:03:17;11.40;99.90
17152;DHT22;8691;50.828;4.700;2023-02-18T10:08:28;11.40;99.90
17152;DHT22;8691;50.828;4.700;2023-02-18T10:10:54;11.40;99.90
17152;DHT22;8691;50.828;4.700;2023-02-18T10:13:22;11.40;99.90
17152;DHT22;8691;50.828;4.700;2023-02-18T10:15:48;11.40;99.90
17152;DHT22;8691;50.828;4.700;2023-02-18T10:21:06;11.40;99.90
17152;DHT22;8691;50.828;4.700;2023-02-18T10:23:35;11.30;99.90
17152;DHT22;8691;50.828;4.700;2023-02-18T10:26:05;11.20;99.90
17152;DHT22;8691;50.828;4.700;2023-02-18T10:28:32;11.30;99.90
17152;DHT22;8691;50.828;4.700;2023-02-18T10:31:08;11.30;99.90
17152;DHT22;8691;50.828;4.700;2023-02-18T10:33:38;11.30;99.90
17152;DHT22;8691;50.828;4.700;2023-02-18T10:36:25;11.40;99.90
17152;DHT22;8691;50.828;4.700;2023-02-18T10:38:59;11.30;99.90
17152;DHT22;8691;50.828;4.700;2023-02-18T10:41:42;11.40;99.90
17152;DHT22;8691;50.828;4.700;2023-02-18T10:44:12;11.40;99.90
17152;DHT22;8691;50.828;4.700;2023-02-18T10:52:01;11.50;99.90
17152;DHT22;8691;50.828;4.700;2023-02-18T10:54:27;11.40;99.90
17152;DHT22;8691;50.828;4.700;2023-02-18T10:56:58;11.40;99.90
17152;DHT22;8691;50.828;4.700;2023-02-18T10:59:21;11.50;99.90
17152;DHT22;8691;50.828;4.700;2023-02-18T11:01:53;11.50;99.90
17152;DHT22;8691;50.828;4.700;2023-02-18T11:04:20;11.60;99.90
17152;DHT22;8691;50.828;4.700;2023-02-18T11:06:50;11.60;99.90
17152;DHT22;8691;50.828;4.700;2023-02-18T11:09:25;11.60;99.90
17152;DHT22;8691;50.828;4.700;2023-02-18T11:11:50;11.70;99.90
17152;DHT22;8691;50.828;4.700;2023-02-18T11:14:32;11.70;99.90
17152;DHT22;8691;50.828;4.700;2023-02-18T11:16:45;11.70;99.90
17152;DHT22;8691;50.828;4.700;2023-02-18T11:19:33;11.80;99.90
17152;DHT22;8691;50.828;4.700;2023-02-18T11:22:14;11.70;99.90
17152;DHT22;8691;50.828;4.700;2023-02-18T11:24:40;11.70;99.90
17152;DHT22;8691;50.828;4.700;2023-02-18T11:27:09;11.70;99.90
17152;DHT22;8691;50.828;4.700;2023-02-18T11:29:36;11.70;99.90
17152;DHT22;8691;50.828;4.700;2023-02-18T11:32:02;11.70;99.90
17152;DHT22;8691;50.828;4.700;2023-02-18T11:34:30;11.70;99.90
17152;DHT22;8691;50.828;4.700;2023-02-18T11:36:56;11.70;99.90
17152;DHT22;8691;50.828;4.700;2023-02-18T11:39:26;11.80;99.90
17152;DHT22;8691;50.828;4.700;2023-02-18T11:41:55;11.80;99.90
17152;DHT22;8691;50.828;4.700;2023-02-18T11:47:04;11.90;99.90
17152;DHT22;8691;50.828;4.700;2023-02-18T11:49:30;11.80;99.90
17152;DHT22;8691;50.828;4.700;2023-02-18T11:54:31;11.80;99.90
17152;DHT22;8691;50.828;4.700;2023-02-18T11:57:01;11.80;99.90
17152;DHT22;8691;50.828;4.700;2023-02-18T11:59:28;11.80;99.90
17152;DHT22;8691;50.828;4.700;2023-02-18T12:04:39;11.90;99.90
17152;DHT22;8691;50.828;4.700;2023-02-18T12:07:21;11.80;99.90
17152;DHT22;8691;50.828;4.700;2023-02-18T12:10:30;11.90;99.90
17152;DHT22;8691;50.828;4.700;2023-02-18T12:12:19;11.90;99.90
17152;DHT22;8691;50.828;4.700;2023-02-18T12:14:45;11.90;99.90
17152;DHT22;8691;50.828;4.700;2023-02-18T12:17:21;11.80;99.90
17152;DHT22;8691;50.828;4.700;2023-02-18T12:22:29;11.80;99.90
17152;DHT22;8691;50.828;4.700;2023-02-18T12:27:46;11.90;99.90
17152;DHT22;8691;50.828;4.700;2023-02-18T12:30:19;11.90;99.90
17152;DHT22;8691;50.828;4.700;2023-02-18T12:32:45;12.00;99.90
17152;DHT22;8691;50.828;4.700;2023-02-18T12:38:03;11.90;99.90
17152;DHT22;8691;50.828;4.700;2023-02-18T12:49:00;12.10;99.90
17152;DHT22;8691;50.828;4.700;2023-02-18T12:51:41;12.10;99.90
17152;DHT22;8691;50.828;4.700;2023-02-18T12:54:18;12.00;99.90
17152;DHT22;8691;50.828;4.700;2023-02-18T13:02:19;12.10;99.90
17152;DHT22;8691;50.828;4.700;2023-02-18T13:12:13;12.10;99.90
17152;DHT22;8691;50.828;4.700;2023-02-18T13:14:47;12.10;99.90
17152;DHT22;8691;50.828;4.700;2023-02-18T13:17:12;12.00;99.90
17152;DHT22;8691;50.828;4.700;2023-02-18T13:19:46;11.80;99.90
17152;DHT22;8691;50.828;4.700;2023-02-18T13:22:11;11.70;99.90
17152;DHT22;8691;50.828;4.700;2023-02-18T13:24:38;11.70;99.90
17152;DHT22;8691;50.828;4.700;2023-02-18T13:29:47;11.70;99.90
17152;DHT22;8691;50.828;4.700;2023-02-18T13:32:35;11.70;99.90
17152;DHT22;8691;50.828;4.700;2023-02-18T13:40:41;11.70;99.90
17152;DHT22;8691;50.828;4.700;2023-02-18T13:43:27;11.70;99.90
17152;DHT22;8691;50.828;4.700;2023-02-18T13:48:32;11.60;99.90
17152;DHT22;8691;50.828;4.700;2023-02-18T13:51:03;11.50;99.90
17152;DHT22;8691;50.828;4.700;2023-02-18T13:53:34;11.50;99.90
17152;DHT22;8691;50.828;4.700;2023-02-18T13:58:53;11.60;99.90
17152;DHT22;8691;50.828;4.700;2023-02-18T14:01:22;11.60;99.90
17152;DHT22;8691;50.828;4.700;2023-02-18T14:03:52;11.70;99.90
17152;DHT22;8691;50.828;4.700;2023-02-18T14:08:44;11.70;99.90
17152;DHT22;8691;50.828;4.700;2023-02-18T14:13:46;11.60;99.90
17152;DHT22;8691;50.828;4.700;2023-02-18T14:16:09;11.60;99.90
17152;DHT22;8691;50.828;4.700;2023-02-18T14:23:40;11.60;99.90
17152;DHT22;8691;50.828;4.700;2023-02-18T14:31:33;11.50;99.90
17152;DHT22;8691;50.828;4.700;2023-02-18T14:34:09;11.50;99.90
17152;DHT22;8691;50.828;4.700;2023-02-18T14:36:35;11.50;99.90
17152;DHT22;8691;50.828;4.700;2023-02-18T14:39:10;11.60;99.90
17152;DHT22;8691;50.828;4.700;2023-02-18T14:42:00;11.60;99.90
17152;DHT22;8691;50.828;4.700;2023-02-18T14:44:18;11.60;99.90
17152;DHT22;8691;50.828;4.700;2023-02-18T14:49:44;11.60;99.90
17152;DHT22;8691;50.828;4.700;2023-02-18T14:52:28;11.50;99.90
17152;DHT22;8691;50.828;4.700;2023-02-18T14:54:51;11.50;99.90
17152;DHT22;8691;50.828;4.700;2023-02-18T14:57:18;11.60;99.90
17152;DHT22;8691;50.828;4.700;2023-02-18T14:59:44;11.60;99.90
17152;DHT22;8691;50.828;4.700;2023-02-18T15:02:21;11.50;99.90
17152;DHT22;8691;50.828;4.700;2023-02-18T15:04:44;11.50;99.90
17152;DHT22;8691;50.828;4.700;2023-02-18T15:07:10;11.50;99.90
17152;DHT22;8691;50.828;4.700;2023-02-18T15:09:43;11.60;99.90
17152;DHT22;8691;50.828;4.700;2023-02-18T15:12:04;11.60;99.90
17152;DHT22;8691;50.828;4.700;2023-02-18T15:14:35;11.60;99.90
17152;DHT22;8691;50.828;4.700;2023-02-18T15:17:00;11.60;99.90
17152;DHT22;8691;50.828;4.700;2023-02-18T15:19:29;11.60;99.90
17152;DHT22;8691;50.828;4.700;2023-02-18T15:21:54;11.70;99.90
17152;DHT22;8691;50.828;4.700;2023-02-18T15:26:47;11.70;99.90
17152;DHT22;8691;50.828;4.700;2023-02-18T15:29:23;11.70;99.90
17152;DHT22;8691;50.828;4.700;2023-02-18T15:31:46;11.60;99.90
17152;DHT22;8691;50.828;4.700;2023-02-18T15:34:28;11.70;99.90
17152;DHT22;8691;50.828;4.700;2023-02-18T15:36:51;11.60;99.90
17152;DHT22;8691;50.828;4.700;2023-02-18T15:39:17;11.60;99.90
17152;DHT22;8691;50.828;4.700;2023-02-18T15:41:44;11.60;99.90
17152;DHT22;8691;50.828;4.700;2023-02-18T15:44:23;11.60;99.90
17152;DHT22;8691;50.828;4.700;2023-02-18T15:46:50;11.50;99.90
17152;DHT22;8691;50.828;4.700;2023-02-18T15:49:18;11.50;99.90
17152;DHT22;8691;50.828;4.700;2023-02-18T15:51:44;11.50;99.90
17152;DHT22;8691;50.828;4.700;2023-02-18T15:54:13;11.50;99.90
17152;DHT22;8691;50.828;4.700;2023-02-18T15:56:39;11.50;99.90
17152;DHT22;8691;50.828;4.700;2023-02-18T16:01:55;11.50;99.90
17152;DHT22;8691;50.828;4.700;2023-02-18T16:04:22;11.40;99.90
17152;DHT22;8691;50.828;4.700;2023-02-18T16:06:48;11.40;99.90
17152;DHT22;8691;50.828;4.700;2023-02-18T16:09:29;11.40;99.90
17152;DHT22;8691;50.828;4.700;2023-02-18T16:11:54;11.40;99.90
17152;DHT22;8691;50.828;4.700;2023-02-18T16:14:27;11.40;99.90
17152;DHT22;8691;50.828;4.700;2023-02-18T16:19:38;11.40;99.90
17152;DHT22;8691;50.828;4.700;2023-02-18T16:22:04;11.40;99.90
17152;DHT22;8691;50.828;4.700;2023-02-18T16:24:37;11.50;99.90
17152;DHT22;8691;50.828;4.700;2023-02-18T16:27:00;11.50;99.90
17152;DHT22;8691;50.828;4.700;2023-02-18T16:29:39;11.40;99.90
17152;DHT22;8691;50.828;4.700;2023-02-18T16:32:03;11.40;99.90
17152;DHT22;8691;50.828;4.700;2023-02-18T16:34:30;11.40;99.90
17152;DHT22;8691;50.828;4.700;2023-02-18T16:36:57;11.30;99.90
17152;DHT22;8691;50.828;4.700;2023-02-18T16:39:42;11.40;99.90
17152;DHT22;8691;50.828;4.700;2023-02-18T16:42:10;11.20;99.90
17152;DHT22;8691;50.828;4.700;2023-02-18T16:44:36;11.20;99.90
17152;DHT22;8691;50.828;4.700;2023-02-18T16:47:03;11.20;99.90
17152;DHT22;8691;50.828;4.700;2023-02-18T16:49:29;11.20;99.90
17152;DHT22;8691;50.828;4.700;2023-02-18T16:51:57;11.20;99.90
17152;DHT22;8691;50.828;4.700;2023-02-18T16:54:23;11.20;99.90
17152;DHT22;8691;50.828;4.700;2023-02-18T16:56:51;11.20;99.90
17152;DHT22;8691;50.828;4.700;2023-02-18T16:59:18;11.20;99.90
17152;DHT22;8691;50.828;4.700;2023-02-18T17:01:45;11.20;99.90
17152;DHT22;8691;50.828;4.700;2023-02-18T17:04:12;11.20;99.90
17152;DHT22;8691;50.828;4.700;2023-02-18T17:06:38;11.20;99.90
17152;DHT22;8691;50.828;4.700;2023-02-18T17:09:22;11.20;99.90
17152;DHT22;8691;50.828;4.700;2023-02-18T17:11:38;11.20;99.90
17152;DHT22;8691;50.828;4.700;2023-02-18T17:14:05;11.30;99.90
17152;DHT22;8691;50.828;4.700;2023-02-18T17:16:32;11.30;99.90
17152;DHT22;8691;50.828;4.700;2023-02-18T17:18:59;11.20;99.90
17152;DHT22;8691;50.828;4.700;2023-02-18T17:21:26;11.20;99.90
17152;DHT22;8691;50.828;4.700;2023-02-18T17:23:53;11.20;99.90
17152;DHT22;8691;50.828;4.700;2023-02-18T17:26:26;11.20;99.90
17152;DHT22;8691;50.828;4.700;2023-02-18T17:28:53;11.20;99.90
17152;DHT22;8691;50.828;4.700;2023-02-18T17:31:22;11.20;99.90
17152;DHT22;8691;50.828;4.700;2023-02-18T17:33:46;11.20;99.90
17152;DHT22;8691;50.828;4.700;2023-02-18T17:36:13;11.10;99.90
17152;DHT22;8691;50.828;4.700;2023-02-18T17:38:40;11.00;99.90
17152;DHT22;8691;50.828;4.700;2023-02-18T17:41:06;11.00;99.90
17152;DHT22;8691;50.828;4.700;2023-02-18T17:43:33;11.00;99.90
17152;DHT22;8691;50.828;4.700;2023-02-18T17:46:00;11.00;99.90
17152;DHT22;8691;50.828;4.700;2023-02-18T17:48:27;10.90;99.90
17152;DHT22;8691;50.828;4.700;2023-02-18T17:50:54;10.90;99.90
17152;DHT22;8691;50.828;4.700;2023-02-18T17:53:20;11.00;99.90
17152;DHT22;8691;50.828;4.700;2023-02-18T17:55:47;11.00;99.90
17152;DHT22;8691;50.828;4.700;2023-02-18T17:58:14;11.00;99.90